My webcam Meer informatie My webcam


Onweer radar Meer informatie blitzortung!


Regen radar Meer informatie rain snow radar


Bezoek ook deze websites:

Template documentation
and downloads

And another site

Leuven-Template Forum

support.leuven-template



Het weer levert geen direct gevaar op.    Er zijn geen waarschuwingen afgegeven.

METAR rapporten vliegvelden

   
EHVK - Volkel Rnlafb, Netherlands
Afstand tot: ZW 18 km
Gewijzigd: 19-11-2019 06:25
Heavy Drizzle, Grotendeels bewolkt  
Heavy Drizzle, Grotendeels bewolkt  
   Wind: WZW 16.7 km/h
Wind: WZW 16.7 km/h
Temperatuur: 4°C
Voelt als: 0°C
Dauwpunt: 4°C
Vochtigheid: 100%
Barometer: 1013 hPa
Bewolking: Grotendeels bewolkt
Zicht: 9 km
Bewolking: Licht bewolkt 700 ft,
Licht bewolkt 1500 ft,
Gedeeltelijk bewolkt 1900 ft,
Grotendeels bewolkt 2500 ft
EHVK 190525Z AUTO 24009KT 9000 +DZ FEW007 FEW015CB SCT019 BKN025 04/04 Q1013 WHT
EDLV - Niederrhein, Germany
Afstand tot: ZO 25 km
Gewijzigd: 19-11-2019 06:20
Wat regen mogelijk, Grotendeels bewolkt  
Wat regen mogelijk, Grotendeels bewolkt  
   Wind: WZW 20.4 km/h
Wind: WZW 20.4 km/h
Temperatuur: 4°C
Voelt als: 0°C
Dauwpunt: 3°C
Vochtigheid: 93%
Barometer: 1013 hPa
Bewolking: Grotendeels bewolkt
Zicht: 9 km
Bewolking: Grotendeels bewolkt 1600 ft
EDLV 190520Z 25011KT 9000 -RA BKN016 04/03 Q1013
EHDL - Deelen Rnlafb, Netherlands
Afstand tot: N 35 km
Gewijzigd: 19-11-2019 06:25
Wat regen mogelijk, Grotendeels bewolkt  
Wat regen mogelijk, Grotendeels bewolkt  
   Wind: WZW 11.1 km/h
Wind: WZW 11.1 km/h
Temperatuur: 5°C
Voelt als: 2°C
Dauwpunt: 5°C
Vochtigheid: 100%
Barometer: 1012 hPa
Bewolking: Grotendeels bewolkt
Zicht: meer dan 10 km
Bewolking: Licht bewolkt 500 ft,
Gedeeltelijk bewolkt 900 ft,
Grotendeels bewolkt 1500 ft
EHDL 190525Z AUTO 24006KT 210V310 9999 -RA FEW005 SCT009 BKN015CB 05/05 Q1012 RERA REDZ GRN
EHEH - Eindhoven Rnlafb, Netherlands
Afstand tot: ZW 48 km
Gewijzigd: 19-11-2019 05:55
Motregen, Bewolking  
Motregen, Bewolking  
   Wind: ZW 11.1 km/h
Wind: ZW 11.1 km/h
Temperatuur: 4°C
Voelt als: 1°C
Dauwpunt: 3°C
Vochtigheid: 93%
Barometer: 1014 hPa
Bewolking: Bewolking
Zicht: meer dan 10 km
Bewolking: Licht bewolkt 1500 ft,
Gedeeltelijk bewolkt 3600 ft,
Bewolking 4500 ft
EHEH 190455Z AUTO 22006KT 9999 DZ FEW015CB SCT036 OVC045 04/03 Q1014 BLU 29006KT 9999 SCT025 BKN040 TEMPO 4000 RADZ SCT005 BKN012 BKN022
EHGR - Gilze-Rijen Rnla, Netherlands
Afstand tot: WZW 70 km
Gewijzigd: 19-11-2019 06:25
Grotendeels bewolkt  
Grotendeels bewolkt  
   Wind: Westen 3.7 km/h
Wind: Westen 3.7 km/h
Temperatuur: 5°C
Dauwpunt: 3°C
Vochtigheid: 87%
Barometer: 1014 hPa
Bewolking: Grotendeels bewolkt
Zicht: meer dan 10 km
Bewolking: Licht bewolkt 1500 ft,
Gedeeltelijk bewolkt 4500 ft,
Grotendeels bewolkt 5300 ft
EHGR 190525Z AUTO 26002KT 9999 FEW015CB SCT045 BKN053 05/03 Q1014 BLU
EBBL - Kleine-Brogel(Ba, Belgium
Afstand tot: ZZW 71 km
Gewijzigd: 19-11-2019 05:55
Grotendeels bewolkt  
Grotendeels bewolkt  
   Wind: ZW 16.7 km/h
Wind: ZW 16.7 km/h
Temperatuur: 4°C
Voelt als: 0°C
Dauwpunt: 3°C
Vochtigheid: 93%
Barometer: 1014 hPa
Bewolking: Grotendeels bewolkt
Zicht: meer dan 10 km
Bewolking: Grotendeels bewolkt 4100 ft
EBBL 190455Z AUTO 23009KT 9999 BKN041/// 04/03 Q1014 BLU

Script ontwikkeld door  Saratoga-weather.org Aangepast voor de template door  Weerstation Leuven

U vindt ons ook hier:

Het Weer Aktueel

European Weather Network

WeatherCloud

Weather Underground

Benelux Weer Netwerk

AWEKAS

Apparatuur in gebruik:

Weerstation
Davis VP2

Weerprogramma
Meteobridge

Weercomputer
My Computer

Webleverancier
My provider

Davis VP2

Meteobridge

My Computer

My provider